sensor_id;sensor_type;location;lat;lon;timestamp;temperature;humidity
64843;DHT22;51310;52.198;5.422;2022-10-16T00:01:27;12.40;99.90
64843;DHT22;51310;52.198;5.422;2022-10-16T00:03:56;12.40;99.90
64843;DHT22;51310;52.198;5.422;2022-10-16T00:06:25;12.50;99.90
64843;DHT22;51310;52.198;5.422;2022-10-16T00:08:53;12.40;99.90
64843;DHT22;51310;52.198;5.422;2022-10-16T00:11:21;12.50;99.90
64843;DHT22;51310;52.198;5.422;2022-10-16T00:13:59;12.50;99.90
64843;DHT22;51310;52.198;5.422;2022-10-16T00:16:27;12.40;99.90
64843;DHT22;51310;52.198;5.422;2022-10-16T00:18:54;12.50;99.90
64843;DHT22;51310;52.198;5.422;2022-10-16T00:21:24;12.50;99.90
64843;DHT22;51310;52.198;5.422;2022-10-16T00:24:05;13.60;99.90
64843;DHT22;51310;52.198;5.422;2022-10-16T00:26:34;12.50;99.90
64843;DHT22;51310;52.198;5.422;2022-10-16T00:29:03;14.90;99.90
64843;DHT22;51310;52.198;5.422;2022-10-16T00:31:30;12.50;99.90
64843;DHT22;51310;52.198;5.422;2022-10-16T00:33:56;12.50;99.90
64843;DHT22;51310;52.198;5.422;2022-10-16T00:36:24;12.50;99.90
64843;DHT22;51310;52.198;5.422;2022-10-16T00:38:52;12.40;99.90
64843;DHT22;51310;52.198;5.422;2022-10-16T00:41:23;12.50;99.90
64843;DHT22;51310;52.198;5.422;2022-10-16T00:43:55;14.10;99.90
64843;DHT22;51310;52.198;5.422;2022-10-16T00:46:37;12.50;99.90
64843;DHT22;51310;52.198;5.422;2022-10-16T00:49:08;12.50;99.90
64843;DHT22;51310;52.198;5.422;2022-10-16T00:51:45;12.50;99.90
64843;DHT22;51310;52.198;5.422;2022-10-16T00:54:21;14.00;99.90
64843;DHT22;51310;52.198;5.422;2022-10-16T00:56:53;12.60;99.90
64843;DHT22;51310;52.198;5.422;2022-10-16T00:59:33;12.60;99.90
64843;DHT22;51310;52.198;5.422;2022-10-16T01:02:04;13.50;99.90
64843;DHT22;51310;52.198;5.422;2022-10-16T01:04:37;12.80;99.90
64843;DHT22;51310;52.198;5.422;2022-10-16T01:07:22;12.70;99.90
64843;DHT22;51310;52.198;5.422;2022-10-16T01:13:23;12.90;99.90
64843;DHT22;51310;52.198;5.422;2022-10-16T01:15:59;13.00;99.90
64843;DHT22;51310;52.198;5.422;2022-10-16T01:18:44;13.10;99.90
64843;DHT22;51310;52.198;5.422;2022-10-16T01:21:18;13.10;99.90
64843;DHT22;51310;52.198;5.422;2022-10-16T01:27:25;13.10;99.90
64843;DHT22;51310;52.198;5.422;2022-10-16T01:30:02;13.20;99.90
64843;DHT22;51310;52.198;5.422;2022-10-16T01:35:42;13.30;99.90
64843;DHT22;51310;52.198;5.422;2022-10-16T01:38:31;13.30;99.90
64843;DHT22;51310;52.198;5.422;2022-10-16T01:41:30;13.20;99.90
64843;DHT22;51310;52.198;5.422;2022-10-16T01:44:06;13.20;99.90
64843;DHT22;51310;52.198;5.422;2022-10-16T01:46:39;13.20;99.90
64843;DHT22;51310;52.198;5.422;2022-10-16T01:49:09;13.20;99.90
64843;DHT22;51310;52.198;5.422;2022-10-16T01:51:37;13.20;99.90
64843;DHT22;51310;52.198;5.422;2022-10-16T01:54:05;13.20;99.90
64843;DHT22;51310;52.198;5.422;2022-10-16T01:56:34;13.20;99.90
64843;DHT22;51310;52.198;5.422;2022-10-16T01:59:05;13.20;99.90
64843;DHT22;51310;52.198;5.422;2022-10-16T02:01:42;13.30;99.90
64843;DHT22;51310;52.198;5.422;2022-10-16T02:04:29;13.30;99.90
64843;DHT22;51310;52.198;5.422;2022-10-16T02:07:02;13.30;99.90
64843;DHT22;51310;52.198;5.422;2022-10-16T02:09:30;13.20;99.90
64843;DHT22;51310;52.198;5.422;2022-10-16T02:12:00;13.20;99.90
64843;DHT22;51310;52.198;5.422;2022-10-16T02:14:53;14.30;99.90
64843;DHT22;51310;52.198;5.422;2022-10-16T02:17:19;13.20;99.90
64843;DHT22;51310;52.198;5.422;2022-10-16T02:19:48;12.10;99.90
64843;DHT22;51310;52.198;5.422;2022-10-16T02:22:30;13.30;99.90
64843;DHT22;51310;52.198;5.422;2022-10-16T02:25:12;13.10;99.90
64843;DHT22;51310;52.198;5.422;2022-10-16T02:27:57;13.10;99.90
64843;DHT22;51310;52.198;5.422;2022-10-16T02:30:44;13.10;99.90
64843;DHT22;51310;52.198;5.422;2022-10-16T02:33:25;13.10;99.90
64843;DHT22;51310;52.198;5.422;2022-10-16T02:35:54;12.90;99.90
64843;DHT22;51310;52.198;5.422;2022-10-16T02:38:22;13.70;99.90
64843;DHT22;51310;52.198;5.422;2022-10-16T02:40:50;12.90;99.90
64843;DHT22;51310;52.198;5.422;2022-10-16T02:43:17;12.80;99.90
64843;DHT22;51310;52.198;5.422;2022-10-16T02:45:43;12.80;99.90
64843;DHT22;51310;52.198;5.422;2022-10-16T02:48:09;12.70;99.90
64843;DHT22;51310;52.198;5.422;2022-10-16T02:50:34;12.70;99.90
64843;DHT22;51310;52.198;5.422;2022-10-16T02:53:01;12.70;99.90
64843;DHT22;51310;52.198;5.422;2022-10-16T02:55:27;12.80;99.90
64843;DHT22;51310;52.198;5.422;2022-10-16T02:57:53;13.00;99.90
64843;DHT22;51310;52.198;5.422;2022-10-16T03:00:19;13.30;99.90
64843;DHT22;51310;52.198;5.422;2022-10-16T03:02:46;12.80;99.90
64843;DHT22;51310;52.198;5.422;2022-10-16T03:05:13;12.80;99.90
64843;DHT22;51310;52.198;5.422;2022-10-16T03:07:39;12.80;99.90
64843;DHT22;51310;52.198;5.422;2022-10-16T03:10:06;12.90;99.90
64843;DHT22;51310;52.198;5.422;2022-10-16T03:12:32;12.80;99.90
64843;DHT22;51310;52.198;5.422;2022-10-16T03:14:58;12.90;99.90
64843;DHT22;51310;52.198;5.422;2022-10-16T03:17:24;12.80;99.90
64843;DHT22;51310;52.198;5.422;2022-10-16T03:19:50;12.80;99.90
64843;DHT22;51310;52.198;5.422;2022-10-16T03:22:16;12.80;99.90
64843;DHT22;51310;52.198;5.422;2022-10-16T03:24:42;12.80;99.90
64843;DHT22;51310;52.198;5.422;2022-10-16T03:27:08;12.70;99.90
64843;DHT22;51310;52.198;5.422;2022-10-16T03:29:34;12.70;99.90
64843;DHT22;51310;52.198;5.422;2022-10-16T03:32:00;12.70;99.90
64843;DHT22;51310;52.198;5.422;2022-10-16T03:34:27;12.60;99.90
64843;DHT22;51310;52.198;5.422;2022-10-16T03:36:53;12.60;99.90
64843;DHT22;51310;52.198;5.422;2022-10-16T03:39:19;12.50;99.90
64843;DHT22;51310;52.198;5.422;2022-10-16T03:41:45;12.40;99.90
64843;DHT22;51310;52.198;5.422;2022-10-16T03:44:12;12.40;99.90
64843;DHT22;51310;52.198;5.422;2022-10-16T03:46:38;13.00;99.90
64843;DHT22;51310;52.198;5.422;2022-10-16T03:49:04;12.40;99.90
64843;DHT22;51310;52.198;5.422;2022-10-16T03:51:30;12.40;99.90
64843;DHT22;51310;52.198;5.422;2022-10-16T03:53:56;12.40;99.90
64843;DHT22;51310;52.198;5.422;2022-10-16T03:56:22;12.40;99.90
64843;DHT22;51310;52.198;5.422;2022-10-16T03:58:48;12.40;99.90
64843;DHT22;51310;52.198;5.422;2022-10-16T04:01:15;12.60;99.90
64843;DHT22;51310;52.198;5.422;2022-10-16T04:03:41;12.40;99.90
64843;DHT22;51310;52.198;5.422;2022-10-16T04:06:07;12.90;99.90
64843;DHT22;51310;52.198;5.422;2022-10-16T04:08:32;12.40;99.90
64843;DHT22;51310;52.198;5.422;2022-10-16T04:11:00;12.40;99.90
64843;DHT22;51310;52.198;5.422;2022-10-16T04:13:26;12.30;99.90
64843;DHT22;51310;52.198;5.422;2022-10-16T04:15:52;12.40;99.90
64843;DHT22;51310;52.198;5.422;2022-10-16T04:18:18;14.80;99.90
64843;DHT22;51310;52.198;5.422;2022-10-16T04:20:44;12.40;99.90
64843;DHT22;51310;52.198;5.422;2022-10-16T04:23:10;12.50;99.90
64843;DHT22;51310;52.198;5.422;2022-10-16T04:25:36;12.40;99.90
64843;DHT22;51310;52.198;5.422;2022-10-16T04:28:02;12.40;99.90
64843;DHT22;51310;52.198;5.422;2022-10-16T04:30:28;12.60;99.90
64843;DHT22;51310;52.198;5.422;2022-10-16T04:32:54;12.50;99.90
64843;DHT22;51310;52.198;5.422;2022-10-16T04:35:21;12.50;99.90
64843;DHT22;51310;52.198;5.422;2022-10-16T04:37:47;12.50;99.90
64843;DHT22;51310;52.198;5.422;2022-10-16T04:40:14;12.50;99.90
64843;DHT22;51310;52.198;5.422;2022-10-16T04:42:40;12.60;99.90
64843;DHT22;51310;52.198;5.422;2022-10-16T04:45:07;12.50;99.90
64843;DHT22;51310;52.198;5.422;2022-10-16T04:47:33;12.50;99.90
64843;DHT22;51310;52.198;5.422;2022-10-16T04:49:59;12.40;99.90
64843;DHT22;51310;52.198;5.422;2022-10-16T04:52:28;12.40;99.90
64843;DHT22;51310;52.198;5.422;2022-10-16T04:54:54;12.40;99.90
64843;DHT22;51310;52.198;5.422;2022-10-16T04:57:21;12.50;99.90
64843;DHT22;51310;52.198;5.422;2022-10-16T04:59:48;12.60;99.90
64843;DHT22;51310;52.198;5.422;2022-10-16T05:02:14;12.40;99.90
64843;DHT22;51310;52.198;5.422;2022-10-16T05:04:39;12.40;99.90
64843;DHT22;51310;52.198;5.422;2022-10-16T05:07:05;14.60;99.90
64843;DHT22;51310;52.198;5.422;2022-10-16T05:09:31;12.30;99.90
64843;DHT22;51310;52.198;5.422;2022-10-16T05:11:57;12.20;99.90
64843;DHT22;51310;52.198;5.422;2022-10-16T05:14:23;12.20;99.90
64843;DHT22;51310;52.198;5.422;2022-10-16T05:16:49;12.20;99.90
64843;DHT22;51310;52.198;5.422;2022-10-16T05:19:15;12.30;99.90
64843;DHT22;51310;52.198;5.422;2022-10-16T05:21:41;12.30;99.90
64843;DHT22;51310;52.198;5.422;2022-10-16T05:24:06;12.40;99.90
64843;DHT22;51310;52.198;5.422;2022-10-16T05:26:32;12.30;99.90
64843;DHT22;51310;52.198;5.422;2022-10-16T05:28:58;12.30;99.90
64843;DHT22;51310;52.198;5.422;2022-10-16T05:31:24;14.10;99.90
64843;DHT22;51310;52.198;5.422;2022-10-16T05:33:50;12.40;99.90
64843;DHT22;51310;52.198;5.422;2022-10-16T05:36:15;13.20;99.90
64843;DHT22;51310;52.198;5.422;2022-10-16T05:38:43;12.40;99.90
64843;DHT22;51310;52.198;5.422;2022-10-16T05:41:09;12.50;99.90
64843;DHT22;51310;52.198;5.422;2022-10-16T05:43:35;12.40;99.90
64843;DHT22;51310;52.198;5.422;2022-10-16T05:46:04;13.40;99.90
64843;DHT22;51310;52.198;5.422;2022-10-16T05:48:32;12.40;99.90
64843;DHT22;51310;52.198;5.422;2022-10-16T05:51:03;12.40;99.90
64843;DHT22;51310;52.198;5.422;2022-10-16T05:53:33;12.40;99.90
64843;DHT22;51310;52.198;5.422;2022-10-16T05:56:02;12.40;99.90
64843;DHT22;51310;52.198;5.422;2022-10-16T05:58:31;12.50;99.90
64843;DHT22;51310;52.198;5.422;2022-10-16T06:01:07;12.50;99.90
64843;DHT22;51310;52.198;5.422;2022-10-16T06:03:37;12.50;99.90
64843;DHT22;51310;52.198;5.422;2022-10-16T06:06:11;12.50;99.90
64843;DHT22;51310;52.198;5.422;2022-10-16T06:08:49;12.60;99.90
64843;DHT22;51310;52.198;5.422;2022-10-16T06:11:17;12.60;99.90
64843;DHT22;51310;52.198;5.422;2022-10-16T06:13:53;12.60;99.90
64843;DHT22;51310;52.198;5.422;2022-10-16T06:16:26;12.60;99.90
64843;DHT22;51310;52.198;5.422;2022-10-16T06:18:54;12.60;99.90
64843;DHT22;51310;52.198;5.422;2022-10-16T06:21:23;12.70;99.90
64843;DHT22;51310;52.198;5.422;2022-10-16T06:23:51;12.60;99.90
64843;DHT22;51310;52.198;5.422;2022-10-16T06:26:20;13.70;99.90
64843;DHT22;51310;52.198;5.422;2022-10-16T06:28:50;12.70;99.90
64843;DHT22;51310;52.198;5.422;2022-10-16T06:31:16;14.70;99.90
64843;DHT22;51310;52.198;5.422;2022-10-16T06:33:43;14.90;99.90
64843;DHT22;51310;52.198;5.422;2022-10-16T06:36:13;12.80;99.90
64843;DHT22;51310;52.198;5.422;2022-10-16T06:38:42;12.70;99.90
64843;DHT22;51310;52.198;5.422;2022-10-16T06:41:11;12.70;99.90
64843;DHT22;51310;52.198;5.422;2022-10-16T06:43:43;12.70;99.90
64843;DHT22;51310;52.198;5.422;2022-10-16T06:46:14;12.70;99.90
64843;DHT22;51310;52.198;5.422;2022-10-16T06:48:45;12.80;99.90
64843;DHT22;51310;52.198;5.422;2022-10-16T06:51:13;12.60;99.90
64843;DHT22;51310;52.198;5.422;2022-10-16T06:53:43;12.60;99.90
64843;DHT22;51310;52.198;5.422;2022-10-16T06:56:21;12.60;99.90
64843;DHT22;51310;52.198;5.422;2022-10-16T06:58:50;12.60;99.90
64843;DHT22;51310;52.198;5.422;2022-10-16T07:01:19;12.70;99.90
64843;DHT22;51310;52.198;5.422;2022-10-16T07:03:48;12.70;99.90
64843;DHT22;51310;52.198;5.422;2022-10-16T07:06:17;12.70;99.90
64843;DHT22;51310;52.198;5.422;2022-10-16T07:08:46;13.90;99.90
64843;DHT22;51310;52.198;5.422;2022-10-16T07:11:15;12.80;99.90
64843;DHT22;51310;52.198;5.422;2022-10-16T07:13:47;12.80;99.90
64843;DHT22;51310;52.198;5.422;2022-10-16T07:16:16;12.90;99.90
64843;DHT22;51310;52.198;5.422;2022-10-16T07:18:45;12.90;99.90
64843;DHT22;51310;52.198;5.422;2022-10-16T07:21:16;12.90;99.90
64843;DHT22;51310;52.198;5.422;2022-10-16T07:23:45;12.90;99.90
64843;DHT22;51310;52.198;5.422;2022-10-16T07:26:11;13.00;99.90
64843;DHT22;51310;52.198;5.422;2022-10-16T07:28:37;13.90;99.90
64843;DHT22;51310;52.198;5.422;2022-10-16T07:31:06;13.10;99.90
64843;DHT22;51310;52.198;5.422;2022-10-16T07:33:37;13.20;99.90
64843;DHT22;51310;52.198;5.422;2022-10-16T07:36:05;13.20;99.90
64843;DHT22;51310;52.198;5.422;2022-10-16T07:38:31;13.20;99.90
64843;DHT22;51310;52.198;5.422;2022-10-16T07:40:59;13.40;99.90
64843;DHT22;51310;52.198;5.422;2022-10-16T07:43:27;13.20;99.90
64843;DHT22;51310;52.198;5.422;2022-10-16T07:45:54;13.20;99.90
64843;DHT22;51310;52.198;5.422;2022-10-16T07:48:21;14.00;99.90
64843;DHT22;51310;52.198;5.422;2022-10-16T07:50:48;13.10;99.90
64843;DHT22;51310;52.198;5.422;2022-10-16T07:53:14;14.00;99.90
64843;DHT22;51310;52.198;5.422;2022-10-16T07:55:41;13.00;99.90
64843;DHT22;51310;52.198;5.422;2022-10-16T07:58:07;13.00;99.90
64843;DHT22;51310;52.198;5.422;2022-10-16T08:00:33;14.90;99.90
64843;DHT22;51310;52.198;5.422;2022-10-16T08:03:01;12.90;99.90
64843;DHT22;51310;52.198;5.422;2022-10-16T08:05:28;13.00;99.90
64843;DHT22;51310;52.198;5.422;2022-10-16T08:07:56;13.10;99.90
64843;DHT22;51310;52.198;5.422;2022-10-16T08:10:24;13.10;99.90
64843;DHT22;51310;52.198;5.422;2022-10-16T08:12:52;13.10;99.90
64843;DHT22;51310;52.198;5.422;2022-10-16T08:15:19;13.20;99.90
64843;DHT22;51310;52.198;5.422;2022-10-16T08:18:03;13.30;99.90
64843;DHT22;51310;52.198;5.422;2022-10-16T08:20:31;13.30;99.90
64843;DHT22;51310;52.198;5.422;2022-10-16T08:23:02;13.50;99.90
64843;DHT22;51310;52.198;5.422;2022-10-16T08:25:29;15.60;99.90
64843;DHT22;51310;52.198;5.422;2022-10-16T08:27:55;16.00;99.90
64843;DHT22;51310;52.198;5.422;2022-10-16T08:30:22;13.80;99.90
64843;DHT22;51310;52.198;5.422;2022-10-16T08:32:49;13.70;99.90
64843;DHT22;51310;52.198;5.422;2022-10-16T08:35:16;13.70;99.90
64843;DHT22;51310;52.198;5.422;2022-10-16T08:37:42;13.80;99.90
64843;DHT22;51310;52.198;5.422;2022-10-16T08:40:19;13.80;99.90
64843;DHT22;51310;52.198;5.422;2022-10-16T08:43:08;13.90;99.90
64843;DHT22;51310;52.198;5.422;2022-10-16T08:48:57;14.00;99.90
64843;DHT22;51310;52.198;5.422;2022-10-16T08:51:33;14.10;99.90
64843;DHT22;51310;52.198;5.422;2022-10-16T08:57:25;14.30;99.90
64843;DHT22;51310;52.198;5.422;2022-10-16T09:00:00;16.20;99.90
64843;DHT22;51310;52.198;5.422;2022-10-16T09:02:45;14.50;99.90
64843;DHT22;51310;52.198;5.422;2022-10-16T09:11:49;16.40;99.90
64843;DHT22;51310;52.198;5.422;2022-10-16T09:14:40;14.60;99.90
64843;DHT22;51310;52.198;5.422;2022-10-16T09:23:29;14.90;99.90
64843;DHT22;51310;52.198;5.422;2022-10-16T09:25:58;15.10;99.90
64843;DHT22;51310;52.198;5.422;2022-10-16T09:28:25;15.10;99.90
64843;DHT22;51310;52.198;5.422;2022-10-16T09:30:51;15.20;99.90
64843;DHT22;51310;52.198;5.422;2022-10-16T09:33:20;15.40;99.90
64843;DHT22;51310;52.198;5.422;2022-10-16T09:35:51;15.50;99.90
64843;DHT22;51310;52.198;5.422;2022-10-16T09:41:10;15.70;99.90
64843;DHT22;51310;52.198;5.422;2022-10-16T09:43:47;15.80;99.90
64843;DHT22;51310;52.198;5.422;2022-10-16T09:46:33;18.20;99.90
64843;DHT22;51310;52.198;5.422;2022-10-16T09:49:05;15.80;99.70
64843;DHT22;51310;52.198;5.422;2022-10-16T09:51:46;15.80;99.40
64843;DHT22;51310;52.198;5.422;2022-10-16T09:54:15;18.00;99.90
64843;DHT22;51310;52.198;5.422;2022-10-16T09:56:44;16.10;99.00
64843;DHT22;51310;52.198;5.422;2022-10-16T09:59:16;16.40;97.70
64843;DHT22;51310;52.198;5.422;2022-10-16T10:01:49;16.30;96.60
64843;DHT22;51310;52.198;5.422;2022-10-16T10:04:19;16.60;96.50
64843;DHT22;51310;52.198;5.422;2022-10-16T10:06:52;16.60;95.30
64843;DHT22;51310;52.198;5.422;2022-10-16T10:09:25;16.60;94.60
64843;DHT22;51310;52.198;5.422;2022-10-16T10:12:05;16.60;93.60
64843;DHT22;51310;52.198;5.422;2022-10-16T10:14:47;16.50;93.40
64843;DHT22;51310;52.198;5.422;2022-10-16T10:17:29;16.60;94.10
64843;DHT22;51310;52.198;5.422;2022-10-16T10:19:58;16.60;92.70
64843;DHT22;51310;52.198;5.422;2022-10-16T10:22:28;16.50;92.90
64843;DHT22;51310;52.198;5.422;2022-10-16T10:25:15;16.70;92.20
64843;DHT22;51310;52.198;5.422;2022-10-16T10:31:01;16.60;93.00
64843;DHT22;51310;52.198;5.422;2022-10-16T10:36:40;16.70;92.10
64843;DHT22;51310;52.198;5.422;2022-10-16T10:39:28;16.80;92.10
64843;DHT22;51310;52.198;5.422;2022-10-16T10:45:27;16.80;90.50
64843;DHT22;51310;52.198;5.422;2022-10-16T10:51:04;16.80;88.80
64843;DHT22;51310;52.198;5.422;2022-10-16T10:57:02;17.10;87.30
64843;DHT22;51310;52.198;5.422;2022-10-16T11:06:12;16.10;90.40
64843;DHT22;51310;52.198;5.422;2022-10-16T11:09:32;16.10;91.00
64843;DHT22;51310;52.198;5.422;2022-10-16T11:14:23;16.90;88.20
64843;DHT22;51310;52.198;5.422;2022-10-16T11:17:27;17.00;88.50
64843;DHT22;51310;52.198;5.422;2022-10-16T11:20:20;17.30;80.40
64843;DHT22;51310;52.198;5.422;2022-10-16T11:22:58;17.40;77.50
64843;DHT22;51310;52.198;5.422;2022-10-16T11:25:32;17.30;76.60
64843;DHT22;51310;52.198;5.422;2022-10-16T11:28:24;17.30;75.70
64843;DHT22;51310;52.198;5.422;2022-10-16T11:31:08;17.30;75.10
64843;DHT22;51310;52.198;5.422;2022-10-16T11:33:57;17.30;72.90
64843;DHT22;51310;52.198;5.422;2022-10-16T11:37:09;17.10;74.20
64843;DHT22;51310;52.198;5.422;2022-10-16T11:39:40;17.00;75.50
64843;DHT22;51310;52.198;5.422;2022-10-16T11:42:32;17.00;77.40
64843;DHT22;51310;52.198;5.422;2022-10-16T11:48:33;16.90;77.00
64843;DHT22;51310;52.198;5.422;2022-10-16T11:51:09;16.80;78.80
64843;DHT22;51310;52.198;5.422;2022-10-16T11:53:57;16.70;80.90
64843;DHT22;51310;52.198;5.422;2022-10-16T11:56:29;16.90;80.40
64843;DHT22;51310;52.198;5.422;2022-10-16T12:02:27;17.00;71.50
64843;DHT22;51310;52.198;5.422;2022-10-16T12:08:39;17.00;73.80
64843;DHT22;51310;52.198;5.422;2022-10-16T12:16:51;17.10;69.00
64843;DHT22;51310;52.198;5.422;2022-10-16T12:19:26;17.10;63.20
64843;DHT22;51310;52.198;5.422;2022-10-16T12:21:56;17.10;62.50
64843;DHT22;51310;52.198;5.422;2022-10-16T12:24:36;17.90;60.90
64843;DHT22;51310;52.198;5.422;2022-10-16T12:27:30;17.30;62.40
64843;DHT22;51310;52.198;5.422;2022-10-16T12:30:00;17.30;62.60
64843;DHT22;51310;52.198;5.422;2022-10-16T12:32:32;17.20;64.90
64843;DHT22;51310;52.198;5.422;2022-10-16T12:35:00;17.10;66.50
64843;DHT22;51310;52.198;5.422;2022-10-16T12:37:32;17.10;66.70
64843;DHT22;51310;52.198;5.422;2022-10-16T12:40:12;17.10;70.10
64843;DHT22;51310;52.198;5.422;2022-10-16T12:42:49;18.70;71.80
64843;DHT22;51310;52.198;5.422;2022-10-16T12:45:34;17.20;71.90
64843;DHT22;51310;52.198;5.422;2022-10-16T12:48:02;17.40;66.70
64843;DHT22;51310;52.198;5.422;2022-10-16T12:50:44;17.60;65.00
64843;DHT22;51310;52.198;5.422;2022-10-16T13:02:35;17.90;62.10
64843;DHT22;51310;52.198;5.422;2022-10-16T13:20:31;17.80;56.10
64843;DHT22;51310;52.198;5.422;2022-10-16T13:23:38;17.80;56.00
64843;DHT22;51310;52.198;5.422;2022-10-16T13:26:18;17.70;57.30
64843;DHT22;51310;52.198;5.422;2022-10-16T13:28:52;17.70;54.70
64843;DHT22;51310;52.198;5.422;2022-10-16T13:31:23;19.30;57.60
64843;DHT22;51310;52.198;5.422;2022-10-16T13:33:53;17.80;56.40
64843;DHT22;51310;52.198;5.422;2022-10-16T13:42:06;17.80;52.60
64843;DHT22;51310;52.198;5.422;2022-10-16T13:44:48;17.80;52.60
64843;DHT22;51310;52.198;5.422;2022-10-16T13:47:25;18.10;50.70
64843;DHT22;51310;52.198;5.422;2022-10-16T13:50:12;17.90;52.10
64843;DHT22;51310;52.198;5.422;2022-10-16T13:52:43;18.70;52.60
64843;DHT22;51310;52.198;5.422;2022-10-16T13:55:17;19.40;54.30
64843;DHT22;51310;52.198;5.422;2022-10-16T13:57:45;17.80;54.00
64843;DHT22;51310;52.198;5.422;2022-10-16T14:00:22;18.90;54.40
64843;DHT22;51310;52.198;5.422;2022-10-16T14:03:05;17.80;52.70
64843;DHT22;51310;52.198;5.422;2022-10-16T14:05:49;17.80;52.70
64843;DHT22;51310;52.198;5.422;2022-10-16T14:08:28;17.90;49.20
64843;DHT22;51310;52.198;5.422;2022-10-16T14:11:04;17.90;47.10
64843;DHT22;51310;52.198;5.422;2022-10-16T14:13:34;17.70;46.40
64843;DHT22;51310;52.198;5.422;2022-10-16T14:16:09;19.00;49.50
64843;DHT22;51310;52.198;5.422;2022-10-16T14:18:46;17.90;50.70
64843;DHT22;51310;52.198;5.422;2022-10-16T14:21:22;17.60;51.20
64843;DHT22;51310;52.198;5.422;2022-10-16T14:23:48;17.70;52.20
64843;DHT22;51310;52.198;5.422;2022-10-16T14:26:17;19.20;54.60
64843;DHT22;51310;52.198;5.422;2022-10-16T14:28:47;17.80;54.50
64843;DHT22;51310;52.198;5.422;2022-10-16T14:31:29;17.90;57.00
64843;DHT22;51310;52.198;5.422;2022-10-16T14:33:59;17.80;56.00
64843;DHT22;51310;52.198;5.422;2022-10-16T14:36:27;17.70;55.20
64843;DHT22;51310;52.198;5.422;2022-10-16T14:41:47;17.90;55.30
64843;DHT22;51310;52.198;5.422;2022-10-16T14:44:18;17.70;57.20
64843;DHT22;51310;52.198;5.422;2022-10-16T14:46:47;17.60;58.20
64843;DHT22;51310;52.198;5.422;2022-10-16T14:49:19;17.50;60.70
64843;DHT22;51310;52.198;5.422;2022-10-16T14:51:47;17.40;60.70
64843;DHT22;51310;52.198;5.422;2022-10-16T14:54:15;17.40;61.90
64843;DHT22;51310;52.198;5.422;2022-10-16T14:56:54;17.50;61.90
64843;DHT22;51310;52.198;5.422;2022-10-16T14:59:41;17.50;62.70
64843;DHT22;51310;52.198;5.422;2022-10-16T15:02:33;17.50;62.80
64843;DHT22;51310;52.198;5.422;2022-10-16T15:05:19;17.40;61.90
64843;DHT22;51310;52.198;5.422;2022-10-16T15:07:52;17.40;62.50
64843;DHT22;51310;52.198;5.422;2022-10-16T15:10:21;17.40;64.10
64843;DHT22;51310;52.198;5.422;2022-10-16T15:12:49;17.90;65.40
64843;DHT22;51310;52.198;5.422;2022-10-16T15:15:35;17.30;67.00
64843;DHT22;51310;52.198;5.422;2022-10-16T15:18:04;17.20;63.30
64843;DHT22;51310;52.198;5.422;2022-10-16T15:20:33;17.30;62.80
64843;DHT22;51310;52.198;5.422;2022-10-16T15:23:03;17.30;63.30
64843;DHT22;51310;52.198;5.422;2022-10-16T15:25:36;17.20;64.10
64843;DHT22;51310;52.198;5.422;2022-10-16T15:28:20;17.90;66.20
64843;DHT22;51310;52.198;5.422;2022-10-16T15:30:51;18.60;67.50
64843;DHT22;51310;52.198;5.422;2022-10-16T15:33:22;17.00;67.20
64843;DHT22;51310;52.198;5.422;2022-10-16T15:35:54;17.10;66.80
64843;DHT22;51310;52.198;5.422;2022-10-16T15:38:21;17.00;67.20
64843;DHT22;51310;52.198;5.422;2022-10-16T15:40:48;17.40;69.00
64843;DHT22;51310;52.198;5.422;2022-10-16T15:43:15;17.60;70.30
64843;DHT22;51310;52.198;5.422;2022-10-16T15:45:41;18.60;72.20
64843;DHT22;51310;52.198;5.422;2022-10-16T15:48:11;18.20;73.70
64843;DHT22;51310;52.198;5.422;2022-10-16T15:50:39;16.70;72.00
64843;DHT22;51310;52.198;5.422;2022-10-16T15:53:06;16.70;72.50
64843;DHT22;51310;52.198;5.422;2022-10-16T15:55:33;16.80;73.60
64843;DHT22;51310;52.198;5.422;2022-10-16T15:58:02;17.40;75.50
64843;DHT22;51310;52.198;5.422;2022-10-16T16:00:29;16.70;75.90
64843;DHT22;51310;52.198;5.422;2022-10-16T16:02:55;16.50;77.80
64843;DHT22;51310;52.198;5.422;2022-10-16T16:05:21;16.50;79.40
64843;DHT22;51310;52.198;5.422;2022-10-16T16:07:48;16.30;80.80
64843;DHT22;51310;52.198;5.422;2022-10-16T16:10:16;16.10;83.00
64843;DHT22;51310;52.198;5.422;2022-10-16T16:12:42;16.20;83.60
64843;DHT22;51310;52.198;5.422;2022-10-16T16:15:09;16.20;84.70
64843;DHT22;51310;52.198;5.422;2022-10-16T16:17:36;17.80;86.20
64843;DHT22;51310;52.198;5.422;2022-10-16T16:20:03;15.90;87.00
64843;DHT22;51310;52.198;5.422;2022-10-16T16:22:30;15.90;87.50
64843;DHT22;51310;52.198;5.422;2022-10-16T16:24:56;15.90;88.20
64843;DHT22;51310;52.198;5.422;2022-10-16T16:27:22;15.90;86.00
64843;DHT22;51310;52.198;5.422;2022-10-16T16:29:50;15.80;87.10
64843;DHT22;51310;52.198;5.422;2022-10-16T16:32:15;15.90;86.90
64843;DHT22;51310;52.198;5.422;2022-10-16T16:34:41;16.00;87.20
64843;DHT22;51310;52.198;5.422;2022-10-16T16:37:07;15.80;86.80
64843;DHT22;51310;52.198;5.422;2022-10-16T16:39:33;15.60;89.90
64843;DHT22;51310;52.198;5.422;2022-10-16T16:41:59;15.50;90.50
64843;DHT22;51310;52.198;5.422;2022-10-16T16:44:26;15.40;90.60
64843;DHT22;51310;52.198;5.422;2022-10-16T16:46:51;15.30;90.40
64843;DHT22;51310;52.198;5.422;2022-10-16T16:49:18;15.40;90.80
64843;DHT22;51310;52.198;5.422;2022-10-16T16:51:44;16.30;91.40
64843;DHT22;51310;52.198;5.422;2022-10-16T16:54:10;15.40;90.80
64843;DHT22;51310;52.198;5.422;2022-10-16T16:56:38;17.70;91.90
64843;DHT22;51310;52.198;5.422;2022-10-16T16:59:12;17.00;92.00
64843;DHT22;51310;52.198;5.422;2022-10-16T17:01:41;15.40;91.90
64843;DHT22;51310;52.198;5.422;2022-10-16T17:04:07;15.30;92.70
64843;DHT22;51310;52.198;5.422;2022-10-16T17:06:35;15.20;93.50
64843;DHT22;51310;52.198;5.422;2022-10-16T17:09:04;15.20;93.80
64843;DHT22;51310;52.198;5.422;2022-10-16T17:11:32;15.10;94.10
64843;DHT22;51310;52.198;5.422;2022-10-16T17:14:00;15.00;94.70
64843;DHT22;51310;52.198;5.422;2022-10-16T17:16:30;15.00;94.40
64843;DHT22;51310;52.198;5.422;2022-10-16T17:19:01;16.90;94.90
64843;DHT22;51310;52.198;5.422;2022-10-16T17:21:34;16.40;95.80
64843;DHT22;51310;52.198;5.422;2022-10-16T17:24:01;15.30;95.90
64843;DHT22;51310;52.198;5.422;2022-10-16T17:26:28;14.60;95.20
64843;DHT22;51310;52.198;5.422;2022-10-16T17:28:57;14.60;95.50
64843;DHT22;51310;52.198;5.422;2022-10-16T17:31:29;14.60;95.60
64843;DHT22;51310;52.198;5.422;2022-10-16T17:34:00;14.60;95.90
64843;DHT22;51310;52.198;5.422;2022-10-16T17:36:30;15.30;96.10
64843;DHT22;51310;52.198;5.422;2022-10-16T17:39:05;14.60;96.20
64843;DHT22;51310;52.198;5.422;2022-10-16T17:41:34;15.70;96.40
64843;DHT22;51310;52.198;5.422;2022-10-16T17:44:01;16.10;96.30